Nearby METAR Reports

 

K1V6 - Canon City, Colorado, USA
Distance from station: NE 34mi, 55km
Updated: 01/28/2023 12:15pm MST
Overcast
Overcast
 Wind from ESE
Wind: ESE 14 mph , 22 km/h
Temperature: 45°F , 7°C
Wind Chill: 39°F , 4°C
Dew Point: 19°F , -7°C
Humidity: 37%
Barometer: 29.75 inHg , 1007.5 hPa
Clouds: Overcast
Visibility: 10 miles , 16 km
Cloud details: Overcast 9000 ft
2023/01/28 19:15 K1V6 281915Z AUTO 12012KT 10SM OVC090 07/M07 A2975 RMK AO2
K04V - Saguache Muni, Colorado, USA
Distance from station: W 35mi, 56km
Updated: 01/28/2023 12:12pm MST

 Wind from SE
Wind: SE 6 mph , 9 km/h
Temperature: 32°F , 0°C
Wind Chill: 26°F , -3°C
Dew Point: 16°F , -9°C
Humidity: 51%
Barometer: 29.83 inHg , 1010.2 hPa
Visibility: 10 miles , 16 km
2023/01/28 19:12 K04V 281912Z AUTO 13005KT 10SM 00/M09 A2983 RMK AO2
 
KANK - Salida, Colorado, USA
Distance from station: NW 43mi, 69km
Updated: 01/28/2023 12:10pm MST
Partly cloudy
Partly cloudy
 Wind from WSW
Wind: WSW 22 mph , 35 km/h, Gust: 25 mph , 41 km/h
Temperature: 37°F , 3°C
Wind Chill: 26°F , -3°C
Dew Point: 14°F , -10°C
Humidity: 38%
Barometer: 29.86 inHg , 1011.2 hPa
Clouds: Partly cloudy
Visibility: 10 miles , 16 km
Cloud details: Partly cloudy 5000 ft
Partly cloudy 8000 ft
2023/01/28 19:10 KANK 281910Z AUTO 25019G22KT 10SM SCT050 SCT080 03/M10 A2986 RMK AO1 T00311102
KVTP - La Veta Pass, Colorado, USA
Distance from station: SSE 44mi, 71km
Updated: 01/28/2023 12:15pm MST
Mostly cloudy
Mostly cloudy
 Wind from WSW
Wind: WSW 13 mph , 20 km/h, Gust: 21 mph , 33 km/h
Temperature: 23°F , -5°C
Wind Chill: 11°F , -12°C
Dew Point: 12°F , -11°C
Humidity: 63%
Barometer: 29.78 inHg , 1008.5 hPa
Clouds: Mostly cloudy
Visibility: 10 miles , 16 km
Cloud details: Partly cloudy 2400 ft
Partly cloudy 2900 ft
Mostly cloudy 11000 ft
2023/01/28 19:15 KVTP 281915Z AUTO 24011G18KT 10SM SCT024 SCT029 BKN110 M05/M11 A2978 RMK AO2
 
KALS - Alamosa, Colorado, USA
Distance from station: SSW 48mi, 77km
Updated: 01/28/2023 11:52am MST
Clear
Clear
 Wind from WSW
Wind: WSW 18 mph , 30 km/h, Gust: 29 mph , 46 km/h
Temperature: 41°F , 5°C
Wind Chill: 32°F , 0°C
Dew Point: 12°F , -11°C
Humidity: 31%
Barometer: 29.79 inHg , 1008.8 hPa
Clouds: Clear
Visibility: 10 miles , 16 km
2023/01/28 18:52 KALS 281852Z AUTO 24016G25KT 10SM CLR 05/M11 A2979 RMK AO2 PK WND 23028/1841 SLP100 T00501106